createdAt,value
2023-02-14T00:01:55.935Z,12.80
2023-02-14T00:04:24.491Z,12.60
2023-02-14T00:06:53.052Z,11.87
2023-02-14T00:09:22.066Z,12.80
2023-02-14T00:11:50.904Z,12.00
2023-02-14T00:14:37.367Z,12.60
2023-02-14T00:17:07.166Z,12.93
2023-02-14T00:19:36.399Z,12.30
2023-02-14T00:22:05.630Z,12.13
2023-02-14T00:24:34.652Z,12.00
2023-02-14T00:27:03.027Z,12.00
2023-02-14T00:29:33.890Z,13.27
2023-02-14T00:32:03.916Z,11.73
2023-02-14T00:34:36.566Z,12.57
2023-02-14T00:37:05.258Z,12.03
2023-02-14T00:39:33.622Z,11.50
2023-02-14T00:42:01.977Z,11.83
2023-02-14T00:44:30.546Z,11.37
2023-02-14T00:46:58.915Z,12.13
2023-02-14T00:49:27.191Z,11.83
2023-02-14T00:51:56.937Z,12.13
2023-02-14T00:54:25.393Z,11.80
2023-02-14T00:56:53.743Z,11.37
2023-02-14T00:59:22.141Z,11.43
2023-02-14T01:01:50.606Z,12.27
2023-02-14T01:04:19.118Z,11.53
2023-02-14T01:06:47.683Z,11.60
2023-02-14T01:09:17.367Z,11.90
2023-02-14T01:11:45.704Z,11.93
2023-02-14T01:14:16.510Z,11.80
2023-02-14T01:16:44.874Z,11.83
2023-02-14T01:19:13.366Z,12.37
2023-02-14T01:21:45.147Z,12.03
2023-02-14T01:24:14.054Z,11.70
2023-02-14T01:26:45.998Z,12.77
2023-02-14T01:29:14.369Z,11.67
2023-02-14T01:31:42.807Z,11.60
2023-02-14T01:34:11.321Z,11.70
2023-02-14T01:36:41.347Z,12.00
2023-02-14T01:39:13.630Z,12.00
2023-02-14T01:41:43.927Z,11.80
2023-02-14T01:44:56.757Z,11.60
2023-02-14T01:47:25.889Z,11.83
2023-02-14T01:49:59.679Z,11.90
2023-02-14T01:52:33.799Z,11.90
2023-02-14T01:55:07.010Z,10.90
2023-02-14T01:57:42.281Z,11.53
2023-02-14T02:00:31.446Z,11.33
2023-02-14T02:03:02.723Z,12.00
2023-02-14T02:05:31.548Z,11.50
2023-02-14T02:08:02.472Z,12.10
2023-02-14T02:10:31.099Z,11.30
2023-02-14T02:13:05.272Z,11.30
2023-02-14T02:15:43.617Z,11.70
2023-02-14T02:18:19.909Z,12.00
2023-02-14T02:21:34.090Z,12.13
2023-02-14T02:24:23.076Z,11.40
2023-02-14T02:27:22.554Z,12.30
2023-02-14T02:31:03.219Z,12.00
2023-02-14T02:34:32.054Z,11.30
2023-02-14T02:37:17.491Z,12.73
2023-02-14T02:40:08.168Z,11.53
2023-02-14T02:42:48.124Z,12.43
2023-02-14T02:45:27.133Z,12.30
2023-02-14T02:48:03.749Z,12.07
2023-02-14T02:50:57.387Z,12.30
2023-02-14T02:53:35.232Z,12.33
2023-02-14T02:56:26.161Z,11.80
2023-02-14T02:58:58.978Z,12.27
2023-02-14T03:01:32.193Z,12.83
2023-02-14T03:04:21.939Z,12.60
2023-02-14T03:06:50.579Z,12.07
2023-02-14T03:09:56.725Z,12.10
2023-02-14T03:13:10.303Z,11.80
2023-02-14T03:16:13.259Z,11.80
2023-02-14T03:18:55.257Z,12.10
2023-02-14T03:21:31.568Z,11.80
2023-02-14T03:24:11.173Z,12.30
2023-02-14T03:26:50.029Z,12.30
2023-02-14T03:29:29.001Z,12.47
2023-02-14T03:32:05.331Z,12.10
2023-02-14T03:34:39.492Z,11.80
2023-02-14T03:37:13.937Z,12.17
2023-02-14T03:39:48.811Z,12.33
2023-02-14T03:42:23.511Z,12.33
2023-02-14T03:44:55.973Z,12.40
2023-02-14T03:47:28.716Z,11.97
2023-02-14T03:50:02.181Z,12.53
2023-02-14T03:52:31.563Z,12.20
2023-02-14T03:55:03.650Z,12.27
2023-02-14T03:57:40.034Z,12.20
2023-02-14T04:00:10.347Z,12.33
2023-02-14T04:02:46.678Z,12.50
2023-02-14T04:05:21.008Z,12.23
2023-02-14T04:07:53.878Z,12.00
2023-02-14T04:10:26.186Z,12.57
2023-02-14T04:12:55.891Z,12.30
2023-02-14T04:15:24.299Z,11.53
2023-02-14T04:18:10.114Z,11.90
2023-02-14T04:20:38.639Z,13.17
2023-02-14T04:23:06.920Z,12.63
2023-02-14T04:25:35.366Z,11.73
2023-02-14T04:28:05.355Z,11.60
2023-02-14T04:30:33.622Z,11.80
2023-02-14T04:33:01.981Z,12.00
2023-02-14T04:35:30.424Z,11.80
2023-02-14T04:37:58.828Z,12.57
2023-02-14T04:40:27.155Z,11.57
2023-02-14T04:42:55.591Z,12.43
2023-02-14T04:45:25.580Z,11.87
2023-02-14T04:47:53.893Z,12.57
2023-02-14T04:50:23.400Z,12.20
2023-02-14T04:52:51.749Z,12.57
2023-02-14T04:55:20.542Z,12.40
2023-02-14T04:57:48.971Z,12.63
2023-02-14T05:00:18.446Z,11.97
2023-02-14T05:02:48.066Z,12.17
2023-02-14T05:05:16.599Z,11.80
2023-02-14T05:07:47.773Z,11.53
2023-02-14T05:10:16.557Z,13.00
2023-02-14T05:12:44.970Z,12.50
2023-02-14T05:15:13.446Z,12.20
2023-02-14T05:17:41.748Z,12.20
2023-02-14T05:20:12.464Z,12.10
2023-02-14T05:22:40.818Z,11.83
2023-02-14T05:25:09.576Z,12.17
2023-02-14T05:27:37.944Z,12.30
2023-02-14T05:30:08.108Z,12.43
2023-02-14T05:32:36.436Z,12.40
2023-02-14T05:35:05.486Z,11.50
2023-02-14T05:37:35.201Z,11.60
2023-02-14T05:40:03.554Z,12.57
2023-02-14T05:42:31.919Z,13.10
2023-02-14T05:45:00.237Z,12.17
2023-02-14T05:47:28.538Z,11.90
2023-02-14T05:49:56.896Z,12.60
2023-02-14T05:52:25.333Z,12.30
2023-02-14T05:54:55.224Z,12.90
2023-02-14T05:57:23.589Z,12.77
2023-02-14T05:59:51.943Z,12.53
2023-02-14T06:02:20.284Z,12.80
2023-02-14T06:04:48.731Z,12.20
2023-02-14T06:07:17.098Z,12.30
2023-02-14T06:09:45.406Z,12.10
2023-02-14T06:12:15.190Z,12.87
2023-02-14T06:14:45.101Z,12.33
2023-02-14T06:17:13.476Z,11.90
2023-02-14T06:19:43.294Z,11.90
2023-02-14T06:22:12.594Z,14.30
2023-02-14T06:24:40.976Z,11.90
2023-02-14T06:27:09.310Z,12.03
2023-02-14T06:29:38.972Z,12.30
2023-02-14T06:32:07.465Z,12.37
2023-02-14T06:34:35.907Z,12.20
2023-02-14T06:37:04.265Z,12.10
2023-02-14T06:39:32.618Z,11.70
2023-02-14T06:42:00.919Z,12.07
2023-02-14T06:44:29.222Z,12.17
2023-02-14T06:46:59.011Z,11.83
2023-02-14T06:49:27.408Z,11.83
2023-02-14T06:51:55.701Z,12.57
2023-02-14T06:54:24.047Z,11.70
2023-02-14T06:56:52.381Z,12.60
2023-02-14T06:59:20.658Z,12.63
2023-02-14T07:01:49.128Z,12.30
2023-02-14T07:04:18.838Z,12.27
2023-02-14T07:06:47.515Z,11.57
2023-02-14T07:09:17.895Z,12.40
2023-02-14T07:11:46.777Z,11.97
2023-02-14T07:14:15.316Z,12.03
2023-02-14T07:16:43.677Z,13.93
2023-02-14T07:19:12.143Z,12.10
2023-02-14T07:21:41.861Z,12.37
2023-02-14T07:24:10.255Z,13.53
2023-02-14T07:26:38.548Z,12.80
2023-02-14T07:29:06.881Z,15.93
2023-02-14T07:31:35.459Z,12.90
2023-02-14T07:34:03.854Z,12.30
2023-02-14T07:36:32.268Z,12.37
2023-02-14T07:39:02.008Z,12.80
2023-02-14T07:41:30.326Z,12.70
2023-02-14T07:43:58.600Z,13.07
2023-02-14T07:46:27.028Z,13.70
2023-02-14T07:48:55.405Z,14.57
2023-02-14T07:51:23.728Z,14.77
2023-02-14T07:53:52.191Z,13.10
2023-02-14T07:56:21.946Z,13.33
2023-02-14T07:58:50.736Z,12.90
2023-02-14T08:01:19.674Z,12.87
2023-02-14T08:03:50.121Z,13.00
2023-02-14T08:06:19.202Z,18.47
2023-02-14T08:08:48.551Z,26.53
2023-02-14T08:11:37.340Z,34.03
2023-02-14T08:14:07.186Z,23.43
2023-02-14T08:16:35.542Z,22.07
2023-02-14T08:19:03.945Z,39.20
2023-02-14T08:21:32.536Z,38.10
2023-02-14T08:24:00.892Z,23.20
2023-02-14T08:26:29.312Z,22.23
2023-02-14T08:28:57.721Z,17.63
2023-02-14T08:31:35.751Z,19.07
2023-02-14T08:34:05.309Z,20.67
2023-02-14T08:36:34.315Z,18.20
2023-02-14T08:39:03.631Z,18.40
2023-02-14T08:41:32.230Z,14.77
2023-02-14T08:44:00.714Z,14.13
2023-02-14T08:46:30.642Z,14.13
2023-02-14T08:48:59.101Z,14.33
2023-02-14T08:51:27.417Z,12.20
2023-02-14T08:53:56.065Z,12.87
2023-02-14T08:56:24.961Z,13.20
2023-02-14T08:58:54.604Z,12.53
2023-02-14T09:01:23.068Z,12.80
2023-02-14T09:03:53.007Z,12.50
2023-02-14T09:06:21.293Z,12.60
2023-02-14T09:08:49.597Z,12.47
2023-02-14T09:11:22.202Z,11.97
2023-02-14T09:13:53.216Z,12.47
2023-02-14T09:16:23.287Z,12.83
2023-02-14T09:18:54.681Z,11.70
2023-02-14T09:21:27.078Z,11.93
2023-02-14T09:23:55.888Z,12.23
2023-02-14T09:26:24.270Z,12.10
2023-02-14T09:28:52.558Z,12.17
2023-02-14T09:31:23.378Z,12.20
2023-02-14T09:34:11.330Z,13.27
2023-02-14T09:36:57.304Z,12.50
2023-02-14T09:39:25.936Z,12.20
2023-02-14T09:42:24.381Z,12.97
2023-02-14T09:44:58.092Z,12.27
2023-02-14T09:47:37.232Z,12.60
2023-02-14T09:50:16.539Z,12.23
2023-02-14T09:52:46.741Z,12.53
2023-02-14T09:55:17.721Z,11.97
2023-02-14T09:58:02.729Z,13.20
2023-02-14T10:00:38.790Z,12.50
2023-02-14T10:03:37.326Z,13.10
2023-02-14T10:06:22.336Z,12.27
2023-02-14T10:09:04.602Z,12.73
2023-02-14T10:11:33.380Z,12.10
2023-02-14T10:14:09.463Z,12.00
2023-02-14T10:16:44.067Z,12.60
2023-02-14T10:19:20.919Z,12.40
2023-02-14T10:21:56.129Z,12.50
2023-02-14T10:24:30.472Z,12.97
2023-02-14T10:27:10.914Z,12.77
2023-02-14T10:29:39.591Z,12.83
2023-02-14T10:32:15.726Z,12.30
2023-02-14T10:34:49.495Z,13.23
2023-02-14T10:37:35.660Z,12.23
2023-02-14T10:40:36.500Z,12.00
2023-02-14T10:43:18.116Z,12.17
2023-02-14T10:45:54.782Z,12.53
2023-02-14T10:48:38.604Z,12.47
2023-02-14T10:51:17.670Z,12.50
2023-02-14T10:54:05.183Z,12.60
2023-02-14T10:56:39.786Z,11.53
2023-02-14T10:59:21.973Z,11.77
2023-02-14T11:01:52.792Z,11.50
2023-02-14T11:04:23.668Z,12.10
2023-02-14T11:06:52.810Z,12.67
2023-02-14T11:09:22.799Z,12.50
2023-02-14T11:11:54.627Z,11.70
2023-02-14T11:14:28.661Z,11.83
2023-02-14T11:16:59.206Z,12.30
2023-02-14T11:19:30.417Z,11.80
2023-02-14T11:22:01.178Z,12.73
2023-02-14T11:24:34.301Z,12.40
2023-02-14T11:27:07.370Z,11.67
2023-02-14T11:29:45.069Z,12.13
2023-02-14T11:32:17.839Z,12.23
2023-02-14T11:34:53.843Z,12.47
2023-02-14T11:37:32.629Z,12.27
2023-02-14T11:40:03.905Z,13.60
2023-02-14T11:42:41.786Z,12.03
2023-02-14T11:45:30.770Z,12.30
2023-02-14T11:48:19.729Z,12.10
2023-02-14T11:50:58.896Z,12.37
2023-02-14T11:53:30.533Z,12.47
2023-02-14T11:56:01.282Z,12.37
2023-02-14T11:58:34.882Z,11.90
2023-02-14T12:01:04.439Z,12.40
2023-02-14T12:03:41.116Z,12.37
2023-02-14T12:06:09.804Z,11.93
2023-02-14T12:08:39.552Z,11.63
2023-02-14T12:11:22.746Z,11.53
2023-02-14T12:13:55.192Z,14.43
2023-02-14T12:16:30.046Z,15.60
2023-02-14T12:19:03.577Z,19.93
2023-02-14T12:21:45.564Z,11.63
2023-02-14T12:24:24.561Z,12.27
2023-02-14T12:27:04.479Z,12.50
2023-02-14T12:29:38.531Z,13.13
2023-02-14T12:32:24.897Z,12.67
2023-02-14T12:35:03.324Z,12.73
2023-02-14T12:37:42.306Z,15.43
2023-02-14T12:40:18.960Z,17.33
2023-02-14T12:43:04.867Z,12.10
2023-02-14T12:46:12.677Z,11.40
2023-02-14T12:48:58.845Z,12.53
2023-02-14T12:51:31.639Z,12.63
2023-02-14T12:54:13.045Z,23.10
2023-02-14T12:56:52.649Z,18.50
2023-02-14T12:59:30.380Z,14.40
2023-02-14T13:02:39.148Z,12.07
2023-02-14T13:05:20.149Z,13.10
2023-02-14T13:08:06.710Z,13.70
2023-02-14T13:10:53.147Z,13.87
2023-02-14T13:13:33.943Z,15.00
2023-02-14T13:16:16.764Z,29.80
2023-02-14T13:18:54.998Z,13.60
2023-02-14T13:21:28.860Z,11.77
2023-02-14T13:24:05.160Z,18.33
2023-02-14T13:26:37.969Z,12.70
2023-02-14T13:29:12.945Z,12.07
2023-02-14T13:31:43.398Z,12.37
2023-02-14T13:34:26.912Z,19.73
2023-02-14T13:36:58.524Z,13.40
2023-02-14T13:39:37.768Z,11.93
2023-02-14T13:42:07.658Z,12.87
2023-02-14T13:44:47.688Z,14.40
2023-02-14T13:47:22.456Z,14.43
2023-02-14T13:49:56.846Z,12.00
2023-02-14T13:52:42.931Z,12.50
2023-02-14T13:55:19.558Z,11.50
2023-02-14T13:58:01.802Z,12.77
2023-02-14T14:00:48.758Z,12.87
2023-02-14T14:03:55.700Z,15.50
2023-02-14T14:06:24.288Z,12.37
2023-02-14T14:08:56.194Z,14.37
2023-02-14T14:11:52.209Z,11.63
2023-02-14T14:14:39.986Z,15.10
2023-02-14T14:17:28.797Z,11.93
2023-02-14T14:19:58.788Z,11.80
2023-02-14T14:22:28.283Z,12.07
2023-02-14T14:25:01.057Z,12.30
2023-02-14T14:27:34.617Z,12.50
2023-02-14T14:30:06.515Z,11.33
2023-02-14T14:32:36.855Z,11.57
2023-02-14T14:35:16.925Z,14.60
2023-02-14T14:37:49.525Z,11.17
2023-02-14T14:40:26.061Z,12.00
2023-02-14T14:42:55.530Z,13.10
2023-02-14T14:45:27.041Z,11.27
2023-02-14T14:47:57.933Z,12.20
2023-02-14T14:50:31.689Z,11.80
2023-02-14T14:53:03.317Z,11.27
2023-02-14T14:55:35.355Z,11.23
2023-02-14T14:58:08.368Z,11.50
2023-02-14T15:00:42.290Z,11.60
2023-02-14T15:03:17.378Z,12.20
2023-02-14T15:05:49.458Z,12.27
2023-02-14T15:08:23.394Z,11.33
2023-02-14T15:10:55.616Z,11.43
2023-02-14T15:13:51.105Z,11.37
2023-02-14T15:16:22.428Z,22.10
2023-02-14T15:18:52.206Z,11.40
2023-02-14T15:21:22.324Z,11.97
2023-02-14T15:23:51.432Z,12.40
2023-02-14T15:26:24.572Z,12.90
2023-02-14T15:28:59.736Z,11.40
2023-02-14T15:31:33.328Z,11.63
2023-02-14T15:34:03.148Z,11.50
2023-02-14T15:36:35.607Z,11.83
2023-02-14T15:39:08.230Z,12.40
2023-02-14T15:41:37.254Z,12.00
2023-02-14T15:44:06.189Z,11.70
2023-02-14T15:46:38.372Z,11.87
2023-02-14T15:49:12.058Z,12.17
2023-02-14T15:51:44.053Z,11.67
2023-02-14T15:54:33.345Z,11.77
2023-02-14T15:57:02.698Z,11.37
2023-02-14T15:59:36.737Z,11.33
2023-02-14T16:02:27.529Z,13.30
2023-02-14T16:04:56.435Z,13.13
2023-02-14T16:07:29.211Z,12.27
2023-02-14T16:10:22.890Z,11.80
2023-02-14T16:13:01.097Z,12.30
2023-02-14T16:15:31.897Z,11.57
2023-02-14T16:18:01.133Z,12.20
2023-02-14T16:20:46.976Z,11.10
2023-02-14T16:23:25.852Z,11.53
2023-02-14T16:25:57.276Z,11.80
2023-02-14T16:28:29.896Z,11.30
2023-02-14T16:31:01.245Z,10.90
2023-02-14T16:33:32.162Z,11.77
2023-02-14T16:36:09.544Z,11.43
2023-02-14T16:38:45.608Z,11.27
2023-02-14T16:41:19.849Z,11.50
2023-02-14T16:43:48.831Z,11.80
2023-02-14T16:46:21.792Z,12.10
2023-02-14T16:48:52.483Z,11.57
2023-02-14T16:51:24.168Z,12.10
2023-02-14T16:53:54.729Z,11.90
2023-02-14T16:56:27.908Z,11.67
2023-02-14T16:58:58.570Z,11.37
2023-02-14T17:01:27.234Z,11.80
2023-02-14T17:03:55.660Z,12.30
2023-02-14T17:06:28.717Z,12.33
2023-02-14T17:09:00.370Z,12.37
2023-02-14T17:11:32.642Z,11.63
2023-02-14T17:14:01.229Z,12.37
2023-02-14T17:16:31.676Z,12.00
2023-02-14T17:19:00.302Z,12.63
2023-02-14T17:21:28.839Z,12.93
2023-02-14T17:23:58.512Z,12.00
2023-02-14T17:26:26.850Z,12.83
2023-02-14T17:28:55.449Z,12.97
2023-02-14T17:31:23.937Z,12.57
2023-02-14T17:33:52.302Z,13.00
2023-02-14T17:36:20.690Z,12.33
2023-02-14T17:38:48.976Z,13.10
2023-02-14T17:41:22.249Z,13.30
2023-02-14T17:43:51.946Z,14.60
2023-02-14T17:46:20.638Z,13.40
2023-02-14T17:48:49.776Z,12.43
2023-02-14T17:51:20.434Z,12.40
2023-02-14T17:53:49.588Z,12.80
2023-02-14T17:56:22.473Z,12.90
2023-02-14T17:58:52.827Z,12.23
2023-02-14T18:01:26.143Z,12.10
2023-02-14T18:03:55.403Z,12.57
2023-02-14T18:06:23.974Z,12.00
2023-02-14T18:08:53.151Z,12.40
2023-02-14T18:11:22.973Z,12.40
2023-02-14T18:13:51.377Z,12.33
2023-02-14T18:16:20.878Z,11.90
2023-02-14T18:18:49.341Z,11.57
2023-02-14T18:21:21.017Z,12.30
2023-02-14T18:23:49.950Z,12.33
2023-02-14T18:26:19.487Z,11.67
2023-02-14T18:28:50.968Z,12.50
2023-02-14T18:31:19.637Z,11.97
2023-02-14T18:33:49.590Z,12.13
2023-02-14T18:36:20.559Z,12.87
2023-02-14T18:38:49.990Z,11.97
2023-02-14T18:41:20.461Z,12.00
2023-02-14T18:43:50.918Z,11.47
2023-02-14T18:46:23.878Z,12.17
2023-02-14T18:48:52.734Z,11.73
2023-02-14T18:51:24.624Z,11.97
2023-02-14T18:53:54.542Z,11.93
2023-02-14T18:56:25.588Z,12.23
2023-02-14T18:59:00.226Z,12.60
2023-02-14T19:01:31.553Z,11.77
2023-02-14T19:04:01.572Z,11.90
2023-02-14T19:06:32.392Z,12.07
2023-02-14T19:09:01.457Z,12.43
2023-02-14T19:11:32.782Z,12.50
2023-02-14T19:14:09.353Z,12.17
2023-02-14T19:16:42.118Z,12.33
2023-02-14T19:19:11.160Z,12.47
2023-02-14T19:21:39.545Z,12.80
2023-02-14T19:24:09.837Z,11.20
2023-02-14T19:26:40.983Z,12.00
2023-02-14T19:29:13.341Z,15.43
2023-02-14T19:31:44.532Z,14.10
2023-02-14T19:34:18.199Z,21.03
2023-02-14T19:36:47.850Z,31.67
2023-02-14T19:39:16.999Z,21.03
2023-02-14T19:41:45.682Z,19.80
2023-02-14T19:44:17.142Z,17.20
2023-02-14T19:46:47.745Z,18.20
2023-02-14T19:49:19.263Z,15.93
2023-02-14T19:51:51.175Z,15.90
2023-02-14T19:54:22.965Z,14.47
2023-02-14T19:56:52.417Z,14.13
2023-02-14T19:59:22.887Z,15.73
2023-02-14T20:01:54.199Z,13.87
2023-02-14T20:04:25.695Z,14.27
2023-02-14T20:06:55.431Z,13.23
2023-02-14T20:09:25.721Z,12.37
2023-02-14T20:11:56.491Z,12.73
2023-02-14T20:14:29.229Z,13.63
2023-02-14T20:17:00.585Z,12.20
2023-02-14T20:19:33.170Z,12.67
2023-02-14T20:22:02.426Z,12.47
2023-02-14T20:24:32.950Z,13.13
2023-02-14T20:27:02.435Z,12.93
2023-02-14T20:29:33.221Z,12.47
2023-02-14T20:32:03.636Z,12.93
2023-02-14T20:34:32.265Z,12.30
2023-02-14T20:37:00.751Z,13.97
2023-02-14T20:39:31.972Z,12.90
2023-02-14T20:42:00.668Z,13.03
2023-02-14T20:44:31.205Z,12.17
2023-02-14T20:46:59.765Z,13.23
2023-02-14T20:49:30.715Z,12.93
2023-02-14T20:51:59.702Z,12.90
2023-02-14T20:54:30.181Z,13.10
2023-02-14T20:56:58.931Z,13.27
2023-02-14T20:59:28.766Z,12.80
2023-02-14T21:02:00.163Z,12.93
2023-02-14T21:04:29.847Z,13.13
2023-02-14T21:07:00.268Z,12.00
2023-02-14T21:09:28.710Z,13.07
2023-02-14T21:11:58.385Z,13.47
2023-02-14T21:14:26.873Z,12.53
2023-02-14T21:16:55.210Z,13.03
2023-02-14T21:19:26.674Z,13.70
2023-02-14T21:21:55.441Z,12.43
2023-02-14T21:24:24.372Z,13.87
2023-02-14T21:26:52.767Z,13.07
2023-02-14T21:29:21.449Z,13.53
2023-02-14T21:31:49.885Z,12.83
2023-02-14T21:34:18.427Z,12.90
2023-02-14T21:36:48.200Z,13.67
2023-02-14T21:39:16.534Z,13.00
2023-02-14T21:41:44.844Z,12.23
2023-02-14T21:44:33.326Z,12.93
2023-02-14T21:47:01.648Z,13.20
2023-02-14T21:49:48.188Z,13.40
2023-02-14T21:52:17.882Z,12.40
2023-02-14T21:54:46.221Z,13.00
2023-02-14T21:57:14.515Z,12.90
2023-02-14T21:59:42.830Z,13.40
2023-02-14T22:02:12.785Z,13.70
2023-02-14T22:04:43.209Z,12.87
2023-02-14T22:07:11.696Z,14.03
2023-02-14T22:09:41.406Z,12.77
2023-02-14T22:12:09.848Z,13.37
2023-02-14T22:15:02.772Z,13.23
2023-02-14T22:17:33.087Z,13.57
2023-02-14T22:20:01.489Z,13.10
2023-02-14T22:22:30.048Z,13.10
2023-02-14T22:24:59.905Z,13.83
2023-02-14T22:27:30.187Z,14.70
2023-02-14T22:29:58.744Z,14.57
2023-02-14T22:32:27.275Z,12.90
2023-02-14T22:34:56.148Z,13.00
2023-02-14T22:37:24.602Z,12.90
2023-02-14T22:39:52.873Z,13.83
2023-02-14T22:42:22.688Z,14.37
2023-02-14T22:44:51.274Z,13.00
2023-02-14T22:47:19.625Z,13.10
2023-02-14T22:49:48.432Z,12.77
2023-02-14T22:52:16.967Z,12.57
2023-02-14T22:54:45.589Z,12.50
2023-02-14T22:57:13.960Z,12.40
2023-02-14T22:59:43.867Z,12.50
2023-02-14T23:02:12.283Z,12.50
2023-02-14T23:04:40.632Z,13.33
2023-02-14T23:07:11.991Z,12.60
2023-02-14T23:09:40.720Z,12.80
2023-02-14T23:12:29.181Z,12.73
2023-02-14T23:15:16.620Z,11.97
2023-02-14T23:18:02.787Z,12.30
2023-02-14T23:20:49.278Z,13.37
2023-02-14T23:23:17.880Z,12.37
2023-02-14T23:25:46.626Z,12.60
2023-02-14T23:28:14.928Z,12.57
2023-02-14T23:30:44.921Z,11.90
2023-02-14T23:33:13.383Z,13.07
2023-02-14T23:35:41.921Z,12.47
2023-02-14T23:38:10.411Z,13.37
2023-02-14T23:40:52.711Z,12.30
2023-02-14T23:43:21.084Z,12.53
2023-02-14T23:45:51.038Z,13.00
2023-02-14T23:48:20.092Z,13.30
2023-02-14T23:50:48.338Z,13.00
2023-02-14T23:53:16.761Z,12.87
2023-02-14T23:55:45.344Z,12.90
2023-02-14T23:58:13.639Z,13.20
